Weather observations for the past three days for
Perry Municipal Airport
Metric (Imperial)
Date Time (cdt) Wind (kph) Vis. (km) Weather Sky Cond. Temperature (ºC) Relative Humidity Wind Chill (°C) Heat Index (°C) Pressure Precipitation (cm)
Air Dwpt 6 hour altimeter (cm) sea level (mb) 1 hr 3 hr 6 hr
Max. Min.
03 22:55 SE 7 16.09 Fair CLR 22.6 22.6 100% 75.77 0.0
03 22:35 S 11 16.09 Fair CLR 22.8 22.8 100% 75.79 0.0
03 22:15 S 6 16.09 Fair CLR 23.7 23.3 98% 75.79 0.0
03 21:55 S 7 14.48 Fair CLR 23.9 23.4 97% 23 75.79 0.0
03 21:35 SE 9 16.09 Fair CLR 23.9 23.6 98% 23 75.77 0.0
03 21:15 S 7 16.09 Fair CLR 25.5 23.7 90% 27 75.74 0.0
03 20:55 S 9 16.09 Fair CLR 26.2 23.7 86% 28 75.74 0.0
03 20:35 S 9 16.09 Fair CLR 27.3 23.7 81% 31 75.72 0.0
03 20:15 S 9 16.09 Fair CLR 27.3 24.1 83% 31 75.69 0.0
03 19:55 S 9 16.09 Fair CLR 27.4 24.7 85% 31 75.69 0.0
03 19:35 S 9 16.09 Fair CLR 28.2 24.7 81% 33 75.69 0.0
03 19:15 S 7 16.09 Fair CLR 29.7 24.4 73% 35 75.69 0.0
03 18:55 S 7 16.09 Fair CLR 30 24.7 73% 36 75.69 0.0
03 18:35 S 9 16.09 Fair CLR 30.8 24.2 68% 36 75.69 0.0
03 18:15 S 13 16.09 Fair CLR 31.4 24.5 67% 38 75.69 0.0
03 17:55 S 13 16.09 Fair CLR 32.2 23.7 61% 38 75.69 0.0
03 17:35 S 13 16.09 Fair CLR 32.4 24.1 62% 39 75.67 0.0
03 17:15 S 15 16.09 Fair CLR 32.3 24.8 65% 39 75.69 0.0
03 16:55 S 19 16.09 Fair CLR 32.5 24.1 61% 39 75.69 0.0
03 16:35 S 17 G 30 16.09 Fair CLR 32.8 24.6 62% 40 75.69 0.0
03 16:15 SE 20 16.09 Fair CLR 32.6 25.1 65% 40 75.69 0.0
03 15:55 S 20 16.09 Fair CLR 32.4 24.8 64% 39 75.72 0.0
03 15:35 SE 17 16.09 Fair CLR 31.7 26.8 75% 41 75.72 0.0
03 15:15 E 20 16.09 Fair CLR 31.1 26.2 75% 40 75.74 0.0
03 14:55 SE 20 16.09 A Few Clouds FEW110 30.6 26.4 78% 39 75.77 0.0
03 14:35 SE 19 16.09 A Few Clouds FEW110 29.2 25.3 80% 35 75.79 0.0
03 14:15 SE 17 16.09 Mostly Cloudy BKN110 28.8 26 85% 35 75.79 0.0
03 13:55 E 11 16.09 Mostly Cloudy BKN100 27.9 27.2 96% 34 75.82 0.0
03 13:35 E 15 16.09 Partly Cloudy FEW065 SCT110 27.9 26.1 90% 33 75.84 0.0
03 13:15 E 7 12.87 Overcast SCT060 OVC090 27.5 25.9 91% 32 75.9 0.0
03 12:55 SE 7 16.09 Overcast OVC090 28.2 24.3 79% 33 75.9 0.0
03 12:35 SE 9 16.09 Partly Cloudy SCT100 29.1 23.9 74% 34 75.87 0.0
03 12:15 S 9 16.09 Thunderstorm in Vicinity SCT100 29.2 24.2 74% 34 75.9 0.0
03 11:55 S 9 16.09 Mostly Cloudy BKN100 27.2 24.4 85% 31 75.9 0.0
03 11:35 S 7 16.09 Mostly Cloudy FEW060 BKN110 27 24.2 85% 30 75.9 0.0
03 11:15 S 9 11.27 Light Rain SCT065 SCT095 BKN130 25.7 24 90% 27 75.92 0.0
03 10:55 Calm 6.44 Light Rain Fog/Mist SCT070 SCT110 BKN140 25.7 24.3 92% 27 75.92 0.0
03 10:35 Calm 16.09 Mostly Cloudy FEW120 BKN140 25.8 23.9 89% 28 75.95 0.0
03 10:15 SE 9 16.09 Partly Cloudy SCT120 24.7 23.7 94% 25 75.92 0.0
03 09:55 SE 9 16.09 A Few Clouds FEW100 23.5 23.5 100% 75.9 0.0
03 09:35 SE 9 14.48 Light Rain FEW100 23.3 23 98% 75.87 0.0
03 09:15 SE 6 16.09 A Few Clouds FEW160 23 23 100% 75.92 0.0
03 08:55 S 9 14.48 Fair CLR 23 23 100% 75.92 0.0
03 08:35 SE 7 14.48 Fair CLR 23.2 22.7 97% 75.92 0.0
03 08:15 SE 9 16.09 Fair CLR 23.7 22.7 94% 75.92 0.0
03 07:55 NE 6 16.09 Fair CLR 24 22.3 90% 24 75.92 0.0
03 07:35 E 6 12.87 Fair CLR 23.8 22.1 90% 75.9 0.0
03 07:15 E 6 14.48 Fair CLR 22.5 21.8 96% 75.9 0.0
03 06:55 Vrbl 6 14.48 Partly Cloudy FEW170 SCT220 22 21.6 98% 75.84 0.0
03 06:35 Calm 16.09 Mostly Cloudy BKN170 22.6 21.5 94% 75.84 0.0
03 06:15 SW 7 16.09 A Few Clouds FEW170 23 21.5 91% 75.82 0.0
03 05:55 SW 11 16.09 Fair CLR 23 21.4 91% 75.82 0.0
03 05:35 SW 11 16.09 Fair CLR 22.8 21.5 92% 75.79 0.0
03 05:15 SW 13 16.09 Fair CLR 22.8 21.5 92% 75.79 0.0
03 04:55 SW 15 16.09 A Few Clouds FEW140 23 21.3 90% 75.79 0.0
03 04:35 SW 11 16.09 Mostly Cloudy BKN140 22.5 21.6 95% 75.77 0.0
03 04:15 SW 6 16.09 Mostly Cloudy BKN140 21.7 21.6 99% 75.77 0.0
03 03:55 S 7 16.09 A Few Clouds FEW140 22.2 21.4 95% 75.77 0.0
03 03:35 S 9 16.09 Fair CLR 21.4 21.4 100% 75.74 0.0
03 03:15 S 9 16.09 Fair CLR 21.4 21.3 99% 75.74 0.0
03 02:55 S 6 16.09 Fair CLR 21.6 21.5 99% 75.74 0.0
03 02:35 S 6 16.09 Fair CLR 22 21.6 98% 75.74 0.0
03 02:15 S 7 16.09 Fair CLR 21.4 21.4 100% 75.77 0.0
03 01:55 S 9 16.09 Fair CLR 21.3 21.3 100% 75.77 0.0
03 01:35 S 9 16.09 Fair CLR 21.8 21.8 100% 75.77 0.0
03 01:15 S 7 11.27 Fair CLR 22.7 22.1 96% 75.77 0.0
03 00:55 S 6 16.09 Fair CLR 22.8 22.2 96% 75.77 0.0
03 00:35 S 6 16.09 Fair CLR 22.9 22.4 97% 75.77 0.0
03 00:15 S 6 16.09 Fair CLR 24.1 22.6 91% 24 75.77 0.0
02 23:55 S 11 16.09 Fair CLR 24 22.8 93% 23 75.77 0.0
02 23:35 S 9 16.09 Fair CLR 24.4 23 92% 24 75.77 0.0
02 23:15 S 9 16.09 Fair CLR 24.5 23.2 93% 24 75.79 0.0
02 22:55 S 9 16.09 Fair CLR 24.9 23.3 91% 25 75.79 0.0
02 22:35 S 11 16.09 Fair CLR 24.6 23.6 94% 25 75.79 0.0
02 22:15 S 9 16.09 Fair CLR 24.7 23.8 95% 25 75.79 0.0
02 21:55 S 9 16.09 Fair CLR 24.8 24.1 96% 25 75.79 0.0
02 21:35 S 11 16.09 Fair CLR 25.2 24.3 95% 26 75.79 0.0
02 21:15 S 9 16.09 Fair CLR 25.8 24.5 93% 28 75.79 0.0
02 20:55 S 11 12.87 Fair CLR 25.9 24.9 94% 28 75.77 0.0
02 20:35 S 7 11.27 Partly Cloudy SCT130 26.7 25.1 91% 30 75.77 0.0
02 20:15 S 9 16.09 A Few Clouds FEW130 26.5 25.6 95% 30 75.74 0.0
02 19:55 S 9 14.48 Fair CLR 27.2 25.8 92% 32 75.74 0.0
02 19:35 S 7 16.09 A Few Clouds FEW130 28.3 26.1 88% 34 75.74 0.0
02 19:15 S 7 16.09 Mostly Cloudy BKN130 29.5 25.9 81% 36 75.74 0.0
02 18:55 S 7 16.09 Partly Cloudy SCT130 30.4 25.5 75% 37 75.74 0.0
02 18:35 S 6 16.09 A Few Clouds FEW140 31 25.6 73% 39 75.74 0.0
02 18:15 S 9 16.09 Partly Cloudy FEW140 SCT160 31.3 24.7 68% 38 75.74 0.0
02 17:55 S 9 16.09 Partly Cloudy SCT160 32.7 24 60% 39 75.74 0.0
02 17:35 S 11 16.09 A Few Clouds FEW150 31.9 24.5 65% 38 75.74 0.0
02 17:15 S 11 16.09 Fair CLR 32.9 23.9 59% 39 75.74 0.0
02 16:55 S 13 16.09 A Few Clouds FEW120 33 24.7 62% 40 75.77 0.0
02 16:35 S 9 16.09 Partly Cloudy SCT120 33.1 24.3 60% 40 75.77 0.0
02 16:15 S 11 16.09 Mostly Cloudy BKN120 32 25.7 69% 40 75.77 0.0
02 15:55 S 9 16.09 Partly Cloudy FEW095 SCT120 32 24.4 64% 38 75.82 0.0
02 15:35 S 11 16.09 Fair CLR 33.3 24.7 61% 41 75.82 0.0
02 15:15 SW 11 16.09 A Few Clouds FEW360 32.7 23.8 59% 39 75.84 0.0
02 14:55 S 11 16.09 A Few Clouds FEW120 33.6 23.5 55% 39 75.84 0.0
02 14:35 S 11 16.09 Fair CLR 33.1 23.2 56% 38 75.84 0.0
02 14:15 S 7 16.09 Fair CLR 32.8 23.4 58% 38 75.87 0.0
02 13:55 S 9 16.09 A Few Clouds FEW130 31.9 22.9 59% 37 75.9 0.0
02 13:35 Vrbl 7 16.09 Partly Cloudy FEW100 SCT130 31.9 23 59% 37 75.92 0.0
02 13:15 S 9 16.09 Partly Cloudy SCT100 31.8 22.4 57% 36 75.92 0.0
02 12:55 S 13 16.09 A Few Clouds FEW300 31.6 23.1 61% 36 75.92 0.0
02 12:35 S 15 16.09 A Few Clouds FEW150 31.3 22.8 61% 36 75.95 0.0
02 12:15 S 7 16.09 Fair CLR 30.7 22.1 60% 34 75.97 0.0
02 11:55 S 7 16.09 Fair CLR 31 22.3 60% 35 75.97 0.0
02 11:35 S 13 16.09 Fair CLR 30 22.9 66% 34 75.97 0.0
02 11:15 S 11 16.09 A Few Clouds FEW110 29.9 22.4 64% 33 75.97 0.0
02 10:55 SE 13 16.09 Fair CLR 29.1 22.3 67% 32 75.97 0.0
02 10:35 SE 17 16.09 Fair CLR 28.9 22.1 67% 32 75.97 0.0
02 10:15 SE 11 16.09 Fair CLR 28.4 22.2 69% 31 76 0.0
02 09:55 SE 13 16.09 Fair CLR 27.2 21.7 72% 29 75.97 0.0
02 09:35 SE 17 16.09 Fair CLR 26.6 22.1 76% 29 75.97 0.0
02 09:15 SE 15 16.09 Fair CLR 26.1 22.5 81% 28 75.97 0.0
02 08:55 SE 17 16.09 Fair CLR 25.2 21.9 82% 26 76 0.0
02 08:35 SE 11 16.09 A Few Clouds FEW110 24.4 21.9 86% 25 76 0.0
02 08:15 SE 11 16.09 Partly Cloudy SCT110 23.6 21.9 90% 76 0.0
02 07:55 SE 11 14.48 Fair CLR 22.7 21.4 92% 76.02 0.0
02 07:35 SE 11 14.48 Fair CLR 22 21.3 96% 76.02 0.0
02 07:15 SE 13 14.48 A Few Clouds FEW110 21.2 21.1 99% 76 0.0
02 06:55 E 15 14.48 A Few Clouds FEW130 21.5 21.1 98% 76 0.0
02 06:35 E 11 16.09 Fair CLR 21.3 21.2 99% 76 0.0
02 06:15 E 9 16.09 Fair CLR 21.4 21.1 98% 76.02 0.0
02 05:55 Calm 16.09 Fair CLR 21.7 21.4 98% 76.02 0.0
02 05:35 E 11 16.09 A Few Clouds FEW110 22.4 21.6 95% 76 0.0
02 05:15 E 9 16.09 Partly Cloudy SCT110 22.5 21.7 95% 76.02 0.0
02 04:55 N 15 16.09 A Few Clouds FEW120 22.7 21.6 94% 76.05 0.0
02 04:35 N 17 16.09 Partly Cloudy SCT100 SCT130 22.8 21.2 91% 76.05 0.0
02 04:15 NW 9 16.09 Mostly Cloudy SCT100 BKN130 23.3 20.8 86% 76.02 0.0
02 03:55 NW 15 16.09 A Few Clouds FEW140 23.9 20.4 81% 24 75.97 0.0
02 03:35 Calm 16.09 Fair CLR 21.9 20.7 93% 75.9 0.0
02 03:15 S 11 16.09 Fair CLR 21.1 21 99% 75.87 0.0
02 02:55 S 11 16.09 Partly Cloudy SCT120 21.3 21.1 99% 75.87 0.0
02 02:35 S 7 12.87 Partly Cloudy SCT120 22 21 94% 75.9 0.0
02 02:15 S 11 16.09 Partly Cloudy SCT120 22.4 21.1 92% 75.87 0.0
02 01:55 S 9 16.09 A Few Clouds FEW120 21.9 21.3 96% 75.84 0.0
02 01:35 S 11 16.09 Fair CLR 21.6 21.5 99% 75.84 0.0
02 01:15 S 13 16.09 Fair CLR 21.7 21.7 100% 75.82 0.0
02 00:55 S 11 16.09 Fair CLR 22.3 21.8 97% 75.84 0.0
02 00:35 S 11 16.09 Fair CLR 22.8 21.9 95% 75.87 0.0
02 00:15 S 9 16.09 Fair CLR 23.3 22 92% 75.87 0.0
01 23:55 S 11 16.09 Fair CLR 23.9 22.2 90% 23 75.87 0.0
01 23:35 S 9 16.09 Fair CLR 23.8 22.4 92% 75.87 0.0
01 23:15 S 9 16.09 Fair CLR 24.3 22.6 90% 24 75.9 0.0
01 22:55 S 11 16.09 Fair CLR 23.8 23.1 96% 75.87 0.0
01 22:35 S 11 16.09 Fair CLR 24.2 23.2 94% 24 75.9 0.0
01 22:15 S 9 16.09 Fair CLR 24.1 23.4 96% 23 75.9 0.0
01 21:55 S 9 16.09 Fair CLR 24.3 23.6 96% 24 75.87 0.0
01 21:35 S 7 16.09 Fair CLR 24.2 23.6 96% 23 75.87 0.0
01 21:15 S 11 16.09 Fair CLR 24.9 23.6 93% 25 75.84 0.0
01 20:55 S 9 11.27 Fair CLR 25 24.1 95% 26 75.84 0.0
01 20:35 S 9 16.09 Fair CLR 25 24.7 98% 25 75.82 0.0
01 20:15 SE 7 16.09 Fair CLR 25.7 24.9 95% 27 75.79 0.0
01 19:55 SE 7 14.48 Fair CLR 26.3 25.2 94% 29 75.79 0.0
01 19:35 S 9 12.87 Fair CLR 28.2 24.9 82% 33 75.82 0.0
01 19:15 S 7 12.87 Fair CLR 28.9 25.7 83% 35 75.82 0.0
01 18:55 S 7 16.09 Fair CLR 29.9 26.1 80% 37 75.82 0.0
01 18:35 S 9 16.09 Fair CLR 30.8 26.3 77% 39 75.82 0.0
01 18:15 S 7 16.09 Fair CLR 32 26 71% 41 75.82 0.0
01 17:55 S 7 16.09 Fair CLR 33 24.1 60% 39 75.84 0.0
01 17:35 S 7 16.09 Fair CLR 32.9 25.1 64% 41 75.84 0.0
01 17:15 S 7 16.09 Fair CLR 33.2 24.5 60% 40 75.84 0.0
01 16:55 S 13 16.09 Fair CLR 33.2 23.6 57% 39 75.84 0.0
01 16:35 S 9 16.09 Fair CLR 33.4 23.6 56% 39 75.84 0.0
01 16:15 S 17 16.09 Fair CLR 33.3 23.2 55% 39 75.87 0.0
01 15:55 S 9 16.09 Fair CLR 33.3 24 58% 40 75.9 0.0
01 15:35 S 7 16.09 Fair CLR 33 24.4 61% 40 75.9 0.0
01 15:15 S 9 16.09 Fair CLR 33.1 24.5 61% 40 75.92 0.0
01 14:55 S 11 16.09 Fair CLR 32.7 23 57% 38 75.92 0.0
01 14:35 S 11 16.09 Fair CLR 32.8 23.9 59% 39 75.95 0.0
01 14:15 S 13 16.09 Fair CLR 32.4 22.9 57% 37 75.97 0.0
01 13:55 S 7 16.09 Fair CLR 32.7 23 57% 38 75.97 0.0
01 13:35 S 11 16.09 Fair CLR 32.4 22.9 57% 37 76 0.0
01 13:15 SW 9 16.09 Fair CLR 32.2 21.7 54% 36 76 0.0
01 12:55 SW 6 16.09 Fair CLR 32 22.7 58% 36 76.02 0.0
01 12:35 S 7 16.09 Fair CLR 31.8 22.6 58% 36 76.02 0.0
01 12:15 W 7 16.09 Fair CLR 31.4 22.4 59% 35 76.02 0.0
01 11:55 S 7 16.09 A Few Clouds FEW360 31.1 23 62% 36 76.02 0.0
01 11:35 SW 11 16.09 Fair CLR 30.7 22.7 62% 35 76.05 0.0
01 11:15 SW 7 16.09 Fair CLR 30.2 22.6 64% 34 76.05 0.0
01 10:55 SW 9 16.09 Fair CLR 30.1 22.9 65% 34 76.02 0.0
01 10:35 SW 6 16.09 Fair CLR 29.5 23.1 69% 34 76.02 0.0
01 10:15 SW 7 16.09 Fair CLR 28.8 23.2 72% 33 76.02 0.0
01 09:55 S 6 16.09 Fair CLR 27.8 24.5 82% 32 76.02 0.0
01 09:35 S 6 16.09 Fair CLR 26.7 25.2 92% 30 76.02 0.0
01 08:50 S 7 16.09 Fair CLR 24.9 24.9 100% 25 76.05 0.0
01 08:35 SE 6 16.09 Fair CLR 24.3 24.2 99% 23 76.05 0.0
01 08:15 Calm 16.09 Fair CLR 23.2 22.8 98% 76.05 0.0
01 07:55 NE 6 11.27 Fair CLR 22.6 22.3 98% 76.05 0.0
01 07:35 Calm 9.66 Fog/Mist CLR 22.1 21.8 98% 76.02 0.0
01 07:15 Calm 11.27 A Few Clouds FEW140 21.3 21 98% 76.02 0.0
01 06:55 Calm 9.66 Fog/Mist FEW180 20.9 20.6 98% 76.02 0.0
01 06:35 S 7 11.27 Partly Cloudy SCT170 SCT190 21.1 20.7 98% 76 0.0
01 06:15 S 9 9.66 Fog/Mist FEW110 SCT170 21.5 21.2 98% 76 0.0
01 05:55 Calm 6.44 Fog/Mist SCT170 21.3 21 98% 76.02 0.0
01 05:35 Calm 9.66 Fog/Mist FEW170 21.6 21.3 98% 76.02 0.0
01 05:15 S 7 9.66 Fog/Mist CLR 21.6 21.2 98% 76.02 0.0
01 04:55 S 7 14.48 Fair CLR 21.5 21.2 98% 76.02 0.0
01 04:35 Calm 14.48 Fair CLR 21.8 21.5 98% 76.02 0.0
01 04:15 S 9 14.48 A Few Clouds FEW170 22.2 21.8 98% 76 0.0
01 03:55 S 11 2.82 Fog/Mist CLR 21.2 21 99% 76.02 0.0
01 03:35 Calm 12.87 A Few Clouds FEW110 21.3 21.1 99% 76.02 0.0
01 03:15 Calm 9.66 Fog/Mist FEW110 21.9 21.7 99% 76.02 0.0
01 02:55 Calm 14.48 Fair CLR 22.7 22.6 99% 76.05 0.0
01 02:35 NE 6 16.09 A Few Clouds FEW090 22.7 22.6 99% 76.02 0.0
01 02:15 Calm 16.09 A Few Clouds FEW090 21.9 21.9 100% 76.05 0.0
01 01:55 Calm 16.09 A Few Clouds FEW095 22 22 100% 76.05 0.0
01 01:35 N 6 16.09 A Few Clouds FEW100 22.7 22.7 100% 76.05 0.0
01 01:15 Calm 16.09 Fair CLR 22.4 22.4 100% 76.05 0.0
01 00:55 Calm 16.09 Partly Cloudy SCT130 22.7 22.7 100% 76.05 0.0
01 00:35 Calm 16.09 Overcast OVC130 23 23 100% 76.05 0.0
01 00:15 Calm 16.09 Overcast OVC130 23.3 23.3 100% 76.02 0.0
31 23:55 Calm 16.09 Overcast OVC130 23.1 23.1 100% 76.02 0.0
31 23:35 Calm 14.48 Mostly Cloudy BKN130 22.2 22.2 100% 76.02 0.0
31 23:15 Calm 16.09 A Few Clouds FEW140 22.6 22.6 100% 76 0.0
Date Time (cdt) Wind (kph) Vis. (km) Weather Sky Cond. Air Dwpt Max. Min. Relative Humidity Wind Chill (°C) Heat Index (°C) altimeter (cm) sea level (mb) 1 hr 3 hr 6 hr
6 hour
Temperature (ºC) Pressure Precipitation (cm)